Time;durP1;ratioP1;P1;durP2;ratioP2;P2;SDS_P1;SDS_P2;PMS_P1;PMS_P2;Temp;Humidity;BMP_temperature;BMP_pressure;BME280_temperature;BME280_humidity;BME280_pressure;Samples;Min_cycle;Max_cycle;Signal;HPM_P1;HPM_P2
2022/12/04 00:00:11;;;;;;;82.90;38.88;;;3.70;94.20;;;;;;5039254;28;20060;-74
2022/12/04 00:02:37;;;;;;;81.25;39.45;;;3.70;93.10;;;;;;5046251;28;20104;-74
2022/12/04 00:05:04;;;;;;;81.10;41.60;;;3.60;92.90;;;;;;5047680;28;20104;-74
2022/12/04 00:07:30;;;;;;;75.05;35.05;;;3.60;92.30;;;;;;5018324;28;20025;-73
2022/12/04 00:09:56;;;;;;;74.72;35.47;;;3.50;92.70;;;;;;5047776;28;20040;-74
2022/12/04 00:12:21;;;;;;;84.68;42.72;;;3.50;92.30;;;;;;5033168;28;20055;-73
2022/12/04 00:14:48;;;;;;;71.40;34.88;;;3.60;91.90;;;;;;5047252;28;20017;-73
2022/12/04 00:17:14;;;;;;;78.95;38.33;;;3.60;92.20;;;;;;5045003;28;20029;-73
2022/12/04 00:19:40;;;;;;;78.70;38.67;;;3.60;91.20;;;;;;5048040;28;20035;-74
2022/12/04 00:22:06;;;;;;;80.82;38.70;;;3.60;93.40;;;;;;5044672;28;20033;-73
2022/12/04 00:24:31;;;;;;;52.05;26.05;;;3.70;92.40;;;;;;5019804;28;20104;-76
2022/12/04 00:26:57;;;;;;;85.28;42.80;;;3.70;93.80;;;;;;5043537;28;20071;-74
2022/12/04 00:29:22;;;;;;;78.82;40.83;;;3.80;94.00;;;;;;5051504;28;20124;-73
2022/12/04 00:31:48;;;;;;;88.88;41.28;;;3.70;93.30;;;;;;5038868;28;20025;-73
2022/12/04 00:34:14;;;;;;;80.28;40.28;;;3.70;92.30;;;;;;5039073;28;20029;-73
2022/12/04 00:36:39;;;;;;;74.25;36.67;;;3.70;91.80;;;;;;5046675;28;20881;-74
2022/12/04 00:39:06;;;;;;;69.82;33.67;;;3.70;92.30;;;;;;5038658;28;20063;-74
2022/12/04 00:41:35;;;;;;;67.45;30.95;;;3.70;92.60;;;;;;5026203;28;20029;-74
2022/12/04 00:44:02;;;;;;;72.10;35.38;;;3.70;92.40;;;;;;5037008;28;20040;-74
2022/12/04 00:46:28;;;;;;;71.72;36.05;;;3.70;93.30;;;;;;5046095;28;20547;-73
2022/12/04 00:48:54;;;;;;;81.32;42.60;;;3.80;94.40;;;;;;5032435;28;20044;-74
2022/12/04 00:51:22;;;;;;;81.25;41.55;;;3.80;93.40;;;;;;5044933;28;20025;-73
2022/12/04 00:53:49;;;;;;;95.05;45.17;;;3.80;93.50;;;;;;5030080;28;20144;-72
2022/12/04 00:56:26;;;;;;;71.70;36.75;;;3.80;92.70;;;;;;5026136;28;20059;-73
2022/12/04 00:58:57;;;;;;;85.07;43.15;;;3.80;91.70;;;;;;5046894;28;20055;-74
2022/12/04 01:01:23;;;;;;;82.80;42.25;;;3.70;89.90;;;;;;5027698;28;20071;-73
2022/12/04 01:03:49;;;;;;;67.13;35.67;;;3.70;91.20;;;;;;5041787;28;20104;-73
2022/12/04 01:06:27;;;;;;;90.28;45.15;;;3.70;91.20;;;;;;5039210;28;20017;-74
2022/12/04 01:08:55;;;;;;;76.82;40.03;;;3.70;91.20;;;;;;5035767;28;20115;-74
2022/12/04 01:11:22;;;;;;;51.80;25.88;;;3.60;90.60;;;;;;5045144;28;20030;-73
2022/12/04 01:13:49;;;;;;;64.55;32.65;;;3.70;92.60;;;;;;5030695;28;20025;-74
2022/12/04 01:16:18;;;;;;;43.50;23.73;;;3.70;93.40;;;;;;5046620;28;20026;-74
2022/12/04 01:18:43;;;;;;;83.72;44.00;;;3.90;94.80;;;;;;5041417;28;20030;-74
2022/12/04 01:21:10;;;;;;;79.78;40.60;;;3.80;94.30;;;;;;5047015;28;20043;-73
2022/12/04 01:23:36;;;;;;;74.85;38.88;;;3.80;93.40;;;;;;5047137;28;20059;-73
2022/12/04 01:26:01;;;;;;;69.50;34.33;;;3.80;92.80;;;;;;5038032;28;20053;-73
2022/12/04 01:28:27;;;;;;;61.15;28.13;;;3.80;93.20;;;;;;5043206;28;20033;-74
2022/12/04 01:31:01;;;;;;;67.57;33.92;;;3.80;93.60;;;;;;5050191;28;20025;-74
2022/12/04 01:33:28;;;;;;;72.60;38.63;;;3.80;93.80;;;;;;5037547;28;20025;-73
2022/12/04 01:35:56;;;;;;;87.18;44.65;;;3.70;93.90;;;;;;5035996;28;20021;-73
2022/12/04 01:38:22;;;;;;;82.20;42.15;;;3.80;94.00;;;;;;5026684;28;20447;-73
2022/12/04 01:40:48;;;;;;;77.38;41.55;;;3.70;92.90;;;;;;5048355;28;20017;-74
2022/12/04 01:43:15;;;;;;;78.43;39.05;;;3.80;92.50;;;;;;5045475;28;20029;-74
2022/12/04 01:45:50;;;;;;;88.20;43.90;;;3.70;92.10;;;;;;5032025;28;20426;-74
2022/12/04 01:48:25;;;;;;;69.65;35.45;;;3.70;91.50;;;;;;5039287;28;20032;-73
2022/12/04 01:51:16;;;;;;;69.25;33.88;;;3.70;92.40;;;;;;5046128;28;20028;-74
2022/12/04 01:53:45;;;;;;;68.93;34.05;;;3.70;92.70;;;;;;5031782;28;20031;-74
2022/12/04 01:56:13;;;;;;;78.90;39.20;;;3.70;91.90;;;;;;5034638;28;20017;-74
2022/12/04 01:58:45;;;;;;;82.40;43.20;;;3.70;92.50;;;;;;5045244;28;20029;-74
2022/12/04 02:01:10;;;;;;;72.15;34.35;;;3.70;91.50;;;;;;5035350;28;20569;-73
2022/12/04 02:03:38;;;;;;;79.78;39.75;;;3.70;92.20;;;;;;5031047;28;20040;-73
2022/12/04 02:06:04;;;;;;;72.25;39.17;;;3.60;91.80;;;;;;5034453;28;20026;-74
2022/12/04 02:08:31;;;;;;;68.85;32.97;;;3.60;92.60;;;;;;5035189;28;20104;-74
2022/12/04 02:11:15;;;;;;;84.25;44.90;;;3.60;93.00;;;;;;5046433;28;20017;-74
2022/12/04 02:13:51;;;;;;;81.97;41.20;;;3.60;93.00;;;;;;5044005;28;20033;-74
2022/12/04 02:16:34;;;;;;;78.88;40.22;;;3.60;93.00;;;;;;5048930;28;20098;-73
2022/12/04 02:19:24;;;;;;;85.35;42.53;;;3.50;91.70;;;;;;5026233;28;20029;-74
2022/12/04 02:21:54;;;;;;;79.87;37.50;;;3.60;93.10;;;;;;5035872;28;20036;-73
2022/12/04 02:24:25;;;;;;;70.85;35.45;;;3.60;93.00;;;;;;5045923;28;20431;-74
2022/12/04 02:27:02;;;;;;;79.30;39.40;;;3.50;92.60;;;;;;5047197;28;20021;-75
2022/12/04 02:29:50;;;;;;;78.18;38.13;;;3.70;94.80;;;;;;5015661;28;20029;-74
2022/12/04 02:32:52;;;;;;;67.10;31.73;;;3.70;94.10;;;;;;5029376;28;20112;-74
2022/12/04 02:35:26;;;;;;;62.45;29.40;;;3.70;93.50;;;;;;5030696;28;20077;-74
2022/12/04 02:37:57;;;;;;;60.50;28.15;;;3.70;94.80;;;;;;5039175;28;20021;-72
2022/12/04 02:41:08;;;;;;;82.28;38.28;;;3.80;95.90;;;;;;5036891;28;20030;-75
2022/12/04 02:43:40;;;;;;;58.22;26.40;;;3.80;95.60;;;;;;5037884;28;20172;-74
2022/12/04 02:46:36;;;;;;;64.43;31.05;;;3.80;95.40;;;;;;5036106;28;20021;-75
2022/12/04 02:49:05;;;;;;;74.03;36.65;;;3.80;95.50;;;;;;5031824;28;20068;-73
2022/12/04 02:51:36;;;;;;;84.95;44.72;;;3.80;95.40;;;;;;5043395;28;20014;-74
2022/12/04 02:54:17;;;;;;;79.82;38.72;;;3.80;94.30;;;;;;5041259;28;20052;-74
2022/12/04 02:56:45;;;;;;;90.00;46.42;;;3.80;94.60;;;;;;5029619;28;20491;-73
2022/12/04 02:59:19;;;;;;;84.63;42.40;;;3.90;95.20;;;;;;5042712;28;20093;-74
2022/12/04 03:01:50;;;;;;;65.43;31.17;;;3.90;95.20;;;;;;5037383;28;20022;-73
2022/12/04 03:04:22;;;;;;;82.35;38.35;;;3.90;95.30;;;;;;5014317;28;20033;-74
2022/12/04 03:06:53;;;;;;;89.10;46.75;;;3.90;95.30;;;;;;5021404;28;20057;-74
2022/12/04 03:09:34;;;;;;;71.18;35.10;;;3.90;95.10;;;;;;5045663;28;20021;-73
2022/12/04 03:12:09;;;;;;;89.47;43.72;;;3.90;95.10;;;;;;5036766;28;20081;-73
2022/12/04 03:14:43;;;;;;;78.30;41.85;;;3.90;94.10;;;;;;5035866;28;20441;-74
2022/12/04 03:17:17;;;;;;;56.78;28.13;;;3.90;92.90;;;;;;5043386;28;20530;-73
2022/12/04 03:19:52;;;;;;;81.65;39.97;;;3.90;94.40;;;;;;5038194;28;20029;-74
2022/12/04 03:22:20;;;;;;;82.22;42.08;;;4.00;94.40;;;;;;5039547;28;20028;-74
2022/12/04 03:24:52;;;;;;;82.60;41.47;;;4.00;95.60;;;;;;5039306;28;20459;-74
2022/12/04 03:27:44;;;;;;;79.15;40.83;;;3.90;95.10;;;;;;5036016;28;20025;-73
2022/12/04 03:30:19;;;;;;;58.67;27.88;;;3.90;95.10;;;;;;5030774;28;20040;-73
2022/12/04 03:32:47;;;;;;;82.90;41.45;;;3.80;94.90;;;;;;5041677;28;20033;-73
2022/12/04 03:35:28;;;;;;;67.85;34.42;;;3.80;94.20;;;;;;5048152;28;20098;-73
2022/12/04 03:38:17;;;;;;;59.50;29.13;;;3.80;94.50;;;;;;5044412;28;20112;-74
2022/12/04 03:40:55;;;;;;;79.90;40.08;;;3.80;95.40;;;;;;5038074;28;20025;-74
2022/12/04 03:43:26;;;;;;;61.30;29.95;;;3.80;95.90;;;;;;5049549;28;20025;-74
2022/12/04 03:46:01;;;;;;;70.75;31.60;;;3.80;95.90;;;;;;5050569;28;20538;-74
2022/12/04 03:48:35;;;;;;;58.72;25.30;;;3.80;96.20;;;;;;5038577;28;20029;-74
2022/12/04 03:51:17;;;;;;;71.55;31.00;;;3.80;95.90;;;;;;5049864;28;20033;-74
2022/12/04 03:53:59;;;;;;;76.75;40.03;;;3.90;95.80;;;;;;5047518;28;20531;-74
2022/12/04 03:56:40;;;;;;;74.40;38.05;;;3.80;95.70;;;;;;5038457;28;20025;-73
2022/12/04 03:59:08;;;;;;;;;;;3.90;95.10;;;;;;5047330;28;20031;-73
2022/12/04 04:01:41;;;;;;;45.85;22.73;;;3.90;95.00;;;;;;5038475;28;19913;-74
2022/12/04 04:04:12;;;;;;;78.05;39.65;;;4.00;95.50;;;;;;5042467;28;20018;-74
2022/12/04 04:06:53;;;;;;;78.55;38.95;;;3.90;95.60;;;;;;5042213;28;20047;-75
2022/12/04 04:09:23;;;;;;;62.60;29.38;;;3.90;95.80;;;;;;5043353;28;20115;-74
2022/12/04 04:11:57;;;;;;;82.28;42.90;;;4.00;95.70;;;;;;5041860;28;20059;-74
2022/12/04 04:25:42;;;;;;;69.18;34.60;;;3.90;94.70;;;;;;5042030;28;20062;-75
2022/12/04 04:28:28;;;;;;;64.10;31.75;;;3.80;94.30;;;;;;5045853;28;20017;-74
2022/12/04 04:31:01;;;;;;;60.47;30.02;;;3.80;94.20;;;;;;5027299;28;20036;-73
2022/12/04 04:33:28;;;;;;;60.58;28.85;;;3.80;95.50;;;;;;5047045;28;20024;-74
2022/12/04 04:36:32;;;;;;;82.15;41.47;;;3.80;95.30;;;;;;5047236;28;20104;-74
2022/12/04 04:39:06;;;;;;;82.00;42.78;;;3.80;96.30;;;;;;5022316;28;20028;-74
2022/12/04 04:41:35;;;;;;;82.35;41.67;;;3.80;95.60;;;;;;5049824;28;20541;-74
2022/12/04 04:44:24;;;;;;;76.70;37.70;;;3.80;94.90;;;;;;5016854;28;20029;-74
2022/12/04 04:46:58;;;;;;;47.10;22.88;;;3.70;94.10;;;;;;5044370;28;20108;-74
2022/12/04 04:49:29;;;;;;;54.53;23.70;;;3.80;95.60;;;;;;5037901;28;20041;-73
2022/12/04 04:51:55;;;;;;;;;;;3.80;96.30;;;;;;5042021;28;20618;-73
2022/12/04 04:54:22;;;;;;;68.47;34.60;;;3.90;96.40;;;;;;5038444;28;19905;-74
2022/12/04 04:56:48;;;;;;;48.25;23.58;;;3.90;96.10;;;;;;5042061;28;20026;-73
2022/12/04 04:59:14;;;;;;;66.57;32.20;;;3.90;96.20;;;;;;5042680;28;20033;-75
2022/12/04 05:01:42;;;;;;;75.40;38.42;;;3.90;96.20;;;;;;5046202;28;20020;-74
2022/12/04 05:04:09;;;;;;;64.57;28.33;;;3.90;96.70;;;;;;5038838;28;20025;-74
2022/12/04 05:06:34;;;;;;;86.85;44.45;;;3.80;96.70;;;;;;5049119;28;20039;-75
2022/12/04 05:09:00;;;;;;;79.95;41.83;;;3.90;97.10;;;;;;5049148;28;20422;-73
2022/12/04 05:11:26;;;;;;;70.70;35.80;;;3.90;96.70;;;;;;5050568;28;20060;-73
2022/12/04 05:13:52;;;;;;;70.05;35.10;;;3.80;96.30;;;;;;5034056;28;20106;-74
2022/12/04 05:16:19;;;;;;;82.60;40.92;;;3.80;95.80;;;;;;5047781;28;20027;-74
2022/12/04 05:19:52;;;;;;;80.03;41.72;;;3.80;95.80;;;;;;5050947;28;20103;-74
2022/12/04 05:21:30;;;;;;;79.15;41.83;;;3.80;96.10;;;;;;5040143;28;20483;-74
2022/12/04 05:23:56;;;;;;;79.63;39.72;;;3.80;95.30;;;;;;5031159;28;20498;-73
2022/12/04 05:26:21;;;;;;;78.30;36.63;;;3.70;94.90;;;;;;5035130;28;20029;-74
2022/12/04 05:28:47;;;;;;;79.43;41.33;;;3.70;94.40;;;;;;5035729;28;20035;-76
2022/12/04 05:31:14;;;;;;;76.70;41.05;;;3.70;93.60;;;;;;5034806;28;20025;-73
2022/12/04 05:33:40;;;;;;;47.40;20.70;;;3.70;94.10;;;;;;5049667;28;20021;-73
2022/12/04 05:36:08;;;;;;;59.92;27.98;;;3.80;96.20;;;;;;5044710;28;20021;-73
2022/12/04 05:38:35;;;;;;;74.55;37.08;;;3.70;96.10;;;;;;5030481;28;20024;-75
2022/12/04 05:41:02;;;;;;;71.95;37.50;;;3.70;96.10;;;;;;5044229;28;20029;-74
2022/12/04 05:43:28;;;;;;;77.05;40.75;;;3.70;95.40;;;;;;5022922;28;20430;-73
2022/12/04 05:45:54;;;;;;;72.97;35.90;;;3.60;94.80;;;;;;5041161;28;20428;-75
2022/12/04 05:48:20;;;;;;;52.05;24.70;;;3.60;94.50;;;;;;5042612;28;20096;-75
2022/12/04 05:50:45;;;;;;;83.18;42.33;;;3.70;95.40;;;;;;5038758;28;20476;-75
2022/12/04 05:53:11;;;;;;;51.38;25.25;;;3.70;95.60;;;;;;5045767;28;20033;-75
2022/12/04 05:55:37;;;;;;;50.05;25.00;;;3.70;96.30;;;;;;5045197;28;20021;-75
2022/12/04 05:58:03;;;;;;;44.20;21.10;;;3.70;96.70;;;;;;5039555;28;20025;-75
2022/12/04 06:00:29;;;;;;;80.88;38.00;;;3.80;97.30;;;;;;5040243;28;20017;-75
2022/12/04 06:02:55;;;;;;;66.95;31.80;;;3.80;97.10;;;;;;5043776;28;20098;-75
2022/12/04 06:05:20;;;;;;;41.25;18.85;;;3.90;97.40;;;;;;5048718;28;20025;-74
2022/12/04 06:07:48;;;;;;;76.07;38.45;;;3.80;97.40;;;;;;5043617;28;20021;-75
2022/12/04 06:10:14;;;;;;;72.75;38.42;;;3.90;97.60;;;;;;5048939;28;20041;-76
2022/12/04 06:12:40;;;;;;;59.78;27.30;;;3.80;97.10;;;;;;5035792;28;20049;-75
2022/12/04 06:15:06;;;;;;;63.35;28.63;;;3.80;97.00;;;;;;5048708;28;20020;-75
2022/12/04 06:17:32;;;;;;;47.33;22.48;;;3.80;97.20;;;;;;5038504;28;20021;-74
2022/12/04 06:19:58;;;;;;;81.47;42.25;;;3.80;97.60;;;;;;5035381;28;20030;-75
2022/12/04 06:22:24;;;;;;;70.70;36.08;;;3.80;97.60;;;;;;5045416;28;20104;-75
2022/12/04 06:24:50;;;;;;;63.35;28.30;;;3.80;97.20;;;;;;5033907;28;20108;-74
2022/12/04 06:27:15;;;;;;;70.25;33.80;;;3.80;97.10;;;;;;5044144;28;20052;-74
2022/12/04 06:29:41;;;;;;;69.75;30.73;;;3.90;97.10;;;;;;5044096;28;20032;-75
2022/12/04 06:32:06;;;;;;;73.35;34.83;;;3.90;96.80;;;;;;5045255;28;20025;-75
2022/12/04 06:34:34;;;;;;;64.85;32.42;;;3.90;97.10;;;;;;5038639;28;20132;-74
2022/12/04 06:37:00;;;;;;;45.00;22.20;;;3.90;96.60;;;;;;5029901;28;20029;-73
2022/12/04 06:39:25;;;;;;;62.47;27.80;;;3.80;96.70;;;;;;5039445;28;20021;-75
2022/12/04 06:41:51;;;;;;;58.30;24.77;;;3.90;97.10;;;;;;5033570;28;20044;-75
2022/12/04 06:44:17;;;;;;;57.97;25.65;;;3.90;97.20;;;;;;5026848;28;20025;-76
2022/12/04 06:46:43;;;;;;;70.97;32.15;;;3.80;97.00;;;;;;5035745;28;20029;-76
2022/12/04 06:49:09;;;;;;;61.20;29.92;;;3.80;96.90;;;;;;5045250;28;20120;-75
2022/12/04 06:51:38;;;;;;;51.42;24.30;;;3.90;97.20;;;;;;5040480;28;20065;-74
2022/12/04 06:54:04;;;;;;;50.10;24.00;;;3.80;96.70;;;;;;5030979;28;20032;-74
2022/12/04 06:56:32;;;;;;;78.88;38.63;;;3.90;97.10;;;;;;5036363;28;20029;-74
2022/12/04 06:58:59;;;;;;;79.03;36.35;;;3.90;97.20;;;;;;5036094;28;20025;-75
2022/12/04 07:01:28;;;;;;;76.88;37.88;;;3.90;97.70;;;;;;5047200;28;20021;-76
2022/12/04 07:03:54;;;;;;;64.28;31.25;;;3.90;97.20;;;;;;5040929;28;20028;-75
2022/12/04 07:06:25;;;;;;;67.45;31.80;;;3.90;96.80;;;;;;5037538;28;20388;-76
2022/12/04 07:08:54;;;;;;;67.22;31.90;;;3.80;96.10;;;;;;5019204;28;20030;-75
2022/12/04 07:11:20;;;;;;;38.28;19.13;;;3.80;96.00;;;;;;5042910;28;20025;-77
2022/12/04 07:13:50;;;;;;;79.10;36.95;;;3.80;96.90;;;;;;5046322;28;20021;-74
2022/12/04 07:16:19;;;;;;;68.90;31.08;;;3.90;97.40;;;;;;5053518;28;20021;-75
2022/12/04 07:18:45;;;;;;;66.60;34.40;;;3.80;97.40;;;;;;5050000;28;20078;-75
2022/12/04 07:21:15;;;;;;;46.45;19.65;;;3.80;97.40;;;;;;5048749;28;20776;-74
2022/12/04 07:23:41;;;;;;;74.40;33.40;;;4.00;98.10;;;;;;5049628;28;20666;-74
2022/12/04 07:26:09;;;;;;;69.85;31.77;;;4.00;98.10;;;;;;5039838;28;20036;-76
2022/12/04 07:28:36;;;;;;;73.07;36.90;;;3.90;97.60;;;;;;5046608;28;20150;-76
2022/12/04 07:31:07;;;;;;;64.60;30.92;;;3.80;97.00;;;;;;5032083;28;20017;-74
2022/12/04 07:33:33;;;;;;;69.90;35.17;;;3.80;96.90;;;;;;5033547;28;20025;-75
2022/12/04 07:36:00;;;;;;;63.08;28.55;;;3.80;96.60;;;;;;5042774;28;20480;-74
2022/12/04 07:38:27;;;;;;;70.40;34.88;;;3.80;96.60;;;;;;5029040;28;20033;-74
2022/12/04 07:41:01;;;;;;;46.47;22.98;;;3.80;96.20;;;;;;5045369;28;20017;-74
2022/12/04 07:43:28;;;;;;;51.97;22.40;;;3.80;96.30;;;;;;5050789;28;20029;-75
2022/12/04 07:45:54;;;;;;;74.88;32.75;;;3.90;97.20;;;;;;5030194;28;20047;-77
2022/12/04 07:48:20;;;;;;;69.85;34.65;;;4.00;97.80;;;;;;5038130;28;20021;-75
2022/12/04 07:50:46;;;;;;;63.10;28.88;;;3.90;97.20;;;;;;5030224;28;20028;-74
2022/12/04 07:53:11;;;;;;;72.82;36.28;;;3.90;97.00;;;;;;5052140;28;20028;-75
2022/12/04 07:55:37;;;;;;;47.67;22.65;;;3.80;96.50;;;;;;5047221;28;20470;-75
2022/12/04 07:58:03;;;;;;;69.00;35.92;;;3.90;97.40;;;;;;5051686;28;20391;-75
2022/12/04 08:00:29;;;;;;;73.65;39.35;;;3.90;96.80;;;;;;5047242;28;20051;-75
2022/12/04 08:02:54;;;;;;;58.13;30.35;;;3.80;96.10;;;;;;5049300;28;20091;-74
2022/12/04 08:05:20;;;;;;;67.95;34.20;;;3.80;95.60;;;;;;5043215;28;20029;-76
2022/12/04 08:07:47;;;;;;;67.60;33.28;;;3.80;96.40;;;;;;5044304;28;20870;-74
2022/12/04 08:10:13;;;;;;;69.63;31.35;;;3.90;96.20;;;;;;5048267;28;20594;-75
2022/12/04 08:12:38;;;;;;;67.97;32.95;;;3.90;96.00;;;;;;5045453;28;20071;-76
2022/12/04 08:15:05;;;;;;;60.28;29.42;;;3.90;96.40;;;;;;5038561;28;20025;-75
2022/12/04 08:17:31;;;;;;;68.72;34.33;;;3.90;96.20;;;;;;5048625;28;20095;-76
2022/12/04 08:19:56;;;;;;;69.40;35.78;;;3.80;95.80;;;;;;5048445;28;20461;-75
2022/12/04 08:22:22;;;;;;;50.72;26.30;;;3.70;94.80;;;;;;5043300;28;20021;-75
2022/12/04 08:24:48;;;;;;;72.53;34.00;;;3.70;94.70;;;;;;5047304;28;20088;-76
2022/12/04 08:27:14;;;;;;;56.70;30.17;;;3.70;96.20;;;;;;5040013;28;20550;-76
2022/12/04 08:29:39;;;;;;;70.18;34.00;;;3.70;95.70;;;;;;5043009;28;20033;-75
2022/12/04 08:32:08;;;;;;;58.60;25.30;;;3.60;95.70;;;;;;5026331;28;20025;-76
2022/12/04 08:34:35;;;;;;;58.00;25.27;;;3.60;95.70;;;;;;5034990;28;20398;-75
2022/12/04 08:37:00;;;;;;;62.60;30.70;;;3.60;97.00;;;;;;5029357;28;20070;-76
2022/12/04 08:39:26;;;;;;;55.13;26.33;;;3.60;96.90;;;;;;5051623;28;20029;-75
2022/12/04 08:41:52;;;;;;;54.92;29.70;;;3.70;97.00;;;;;;5037486;28;20021;-75
2022/12/04 08:44:18;;;;;;;60.05;28.58;;;3.70;96.90;;;;;;5041351;28;20386;-75
2022/12/04 08:46:43;;;;;;;68.00;30.75;;;3.70;96.90;;;;;;5045566;28;20041;-74
2022/12/04 08:49:09;;;;;;;64.57;32.58;;;3.70;96.90;;;;;;5036993;28;20032;-76
2022/12/04 08:51:35;;;;;;;67.50;27.65;;;3.70;96.70;;;;;;5046207;28;20022;-76
2022/12/04 08:54:06;;;;;;;66.70;32.58;;;3.70;97.10;;;;;;5026132;28;20048;-75
2022/12/04 08:56:33;;;;;;;61.15;29.25;;;3.70;96.80;;;;;;5030506;28;20040;-75
2022/12/04 08:59:00;;;;;;;61.47;31.98;;;3.60;96.30;;;;;;5046457;28;20141;-76
2022/12/04 09:01:26;;;;;;;49.33;25.50;;;3.60;95.80;;;;;;5023561;28;20083;-77
2022/12/04 09:03:52;;;;;;;58.95;29.40;;;3.60;95.80;;;;;;5019949;28;20471;-76
2022/12/04 09:06:18;;;;;;;52.80;26.38;;;3.70;96.50;;;;;;5042086;28;20039;-75
2022/12/04 09:08:44;;;;;;;61.95;31.02;;;3.70;96.30;;;;;;5041987;28;20723;-76
2022/12/04 09:11:19;;;;;;;55.67;28.40;;;3.80;95.80;;;;;;5042096;28;20098;-76
2022/12/04 09:13:45;;;;;;;54.10;26.92;;;3.80;94.30;;;;;;5041420;28;20096;-75
2022/12/04 09:16:13;;;;;;;48.97;24.15;;;3.80;94.70;;;;;;5028619;28;20851;-74
2022/12/04 09:18:39;;;;;;;53.13;24.00;;;3.90;95.20;;;;;;5038280;28;20392;-75
2022/12/04 09:21:07;;;;;;;59.63;27.52;;;3.90;95.60;;;;;;5049084;28;20059;-75
2022/12/04 09:23:34;;;;;;;59.53;28.50;;;3.90;96.20;;;;;;5039073;28;20408;-75
2022/12/04 09:26:00;;;;;;;61.40;28.77;;;3.90;96.10;;;;;;5026369;28;20616;-74
2022/12/04 09:28:27;;;;;;;58.42;28.17;;;3.90;95.50;;;;;;5046385;28;20071;-75
2022/12/04 09:31:03;;;;;;;61.17;29.73;;;3.90;95.30;;;;;;5048366;28;20056;-74
2022/12/04 09:33:30;;;;;;;60.45;29.42;;;3.80;94.80;;;;;;5048134;28;20135;-74
2022/12/04 09:36:00;;;;;;;56.72;29.92;;;3.80;95.20;;;;;;5029555;28;20013;-75
2022/12/04 09:38:27;;;;;;;51.65;24.83;;;3.80;95.30;;;;;;5041726;28;20164;-75
2022/12/04 09:41:06;;;;;;;52.80;27.05;;;3.80;95.20;;;;;;5028320;28;20037;-75
2022/12/04 09:43:41;;;;;;;50.33;23.85;;;3.80;95.30;;;;;;5045579;28;20045;-75
2022/12/04 09:46:15;;;;;;;46.38;23.58;;;3.90;96.50;;;;;;5040422;28;20036;-75
2022/12/04 09:48:43;;;;;;;41.95;20.33;;;3.90;96.80;;;;;;5044334;28;20045;-76
2022/12/04 09:51:17;;;;;;;46.08;21.60;;;3.90;96.80;;;;;;5026143;28;20434;-73
2022/12/04 09:53:52;;;;;;;46.13;20.92;;;3.90;97.40;;;;;;5036256;28;20022;-75
2022/12/04 09:56:19;;;;;;;47.50;22.75;;;4.00;97.80;;;;;;5047579;28;20075;-74
2022/12/04 09:59:13;;;;;;;45.55;22.00;;;4.10;97.60;;;;;;5044980;28;20044;-75
2022/12/04 10:01:55;;;;;;;43.33;20.42;;;4.00;97.30;;;;;;5048559;28;20032;-74
2022/12/04 10:04:20;;;;;;;52.33;25.42;;;4.00;97.60;;;;;;5043115;28;20127;-74
2022/12/04 10:07:21;;;;;;;45.72;23.20;;;4.10;97.60;;;;;;5044074;28;20123;-74
2022/12/04 10:09:59;;;;;;;43.63;23.10;;;4.10;97.00;;;;;;5041878;28;20123;-75
2022/12/04 10:13:00;;;;;;;39.72;21.05;;;4.00;96.30;;;;;;5048417;28;20518;-74
2022/12/04 10:15:37;;;;;;;38.95;19.70;;;3.90;96.30;;;;;;5027027;28;20024;-74
2022/12/04 10:18:28;;;;;;;40.72;21.58;;;4.00;96.30;;;;;;5037950;28;20100;-74
2022/12/04 10:21:11;;;;;;;39.47;17.90;;;4.10;95.90;;;;;;5039907;28;20024;-75
2022/12/04 10:23:48;;;;;;;39.47;19.42;;;4.00;95.70;;;;;;5038774;28;20036;-76
2022/12/04 10:26:17;;;;;;;39.25;21.27;;;4.00;95.90;;;;;;5043655;28;20024;-74
2022/12/04 10:29:19;;;;;;;34.30;17.27;;;4.10;95.70;;;;;;5034059;28;20049;-75
2022/12/04 10:31:46;;;;;;;38.65;20.75;;;4.10;96.50;;;;;;5032858;28;20067;-74
2022/12/04 10:34:28;;;;;;;39.55;19.95;;;4.20;97.00;;;;;;5044767;28;20045;-75
2022/12/04 10:37:00;;;;;;;35.45;20.15;;;4.20;97.20;;;;;;5014820;28;20036;-73
2022/12/04 10:39:34;;;;;;;37.78;18.88;;;4.20;96.60;;;;;;5038747;28;20017;-75
2022/12/04 10:41:59;;;;;;;36.63;20.00;;;4.20;96.10;;;;;;5044244;28;20033;-73
2022/12/04 10:44:26;;;;;;;36.53;20.48;;;4.20;95.40;;;;;;5026873;28;20037;-73
2022/12/04 10:46:58;;;;;;;39.30;20.45;;;4.30;95.70;;;;;;5036173;28;20025;-74
2022/12/04 10:49:29;;;;;;;38.83;18.77;;;4.30;95.30;;;;;;5048729;28;20037;-74
2022/12/04 10:51:55;;;;;;;37.72;18.90;;;4.30;96.50;;;;;;5045112;28;20032;-74
2022/12/04 10:54:33;;;;;;;37.60;20.77;;;4.30;96.10;;;;;;5046855;28;20017;-75
2022/12/04 10:57:05;;;;;;;32.78;19.13;;;4.30;96.30;;;;;;5027306;28;20031;-74
2022/12/04 10:59:32;;;;;;;36.45;17.60;;;4.30;94.90;;;;;;5037960;28;20028;-73
2022/12/04 11:02:17;;;;;;;34.38;19.67;;;4.20;94.20;;;;;;5042376;28;20360;-74
2022/12/04 11:04:57;;;;;;;36.25;20.27;;;4.20;93.70;;;;;;5034679;28;20025;-74
2022/12/04 11:07:35;;;;;;;36.05;18.25;;;4.30;95.50;;;;;;5041575;28;20025;-74
2022/12/04 11:10:17;;;;;;;32.53;18.83;;;4.20;94.70;;;;;;5039355;28;20048;-74
2022/12/04 11:12:54;;;;;;;31.23;17.98;;;4.20;94.90;;;;;;5042314;28;20491;-75
2022/12/04 11:15:20;;;;;;;32.13;17.27;;;4.10;93.60;;;;;;5036647;28;20054;-76
2022/12/04 11:17:46;;;;;;;31.52;18.05;;;4.20;94.30;;;;;;5046663;28;20029;-74
2022/12/04 11:20:19;;;;;;;30.85;16.85;;;4.20;94.60;;;;;;5046125;28;20112;-74
2022/12/04 11:22:53;;;;;;;35.97;20.48;;;4.20;94.00;;;;;;5023710;28;20049;-75
2022/12/04 11:25:21;;;;;;;33.15;19.25;;;4.30;95.00;;;;;;5043867;28;20467;-75
2022/12/04 11:27:50;;;;;;;32.65;17.23;;;4.40;94.70;;;;;;5035585;28;20111;-76
2022/12/04 11:30:30;;;;;;;28.70;15.90;;;4.40;93.50;;;;;;5037956;28;20040;-74
2022/12/04 11:32:56;;;;;;;30.90;19.27;;;4.40;93.90;;;;;;5032626;28;20029;-74
2022/12/04 11:35:25;;;;;;;33.05;18.15;;;4.30;93.80;;;;;;5039812;28;20267;-73
2022/12/04 11:38:08;;;;;;;28.85;17.60;;;4.30;94.00;;;;;;5041325;28;20487;-75
2022/12/04 11:40:35;;;;;;;27.83;17.52;;;4.30;94.30;;;;;;5032234;28;20051;-74
2022/12/04 11:43:08;;;;;;;29.60;16.38;;;4.40;93.60;;;;;;5031927;28;20034;-75
2022/12/04 11:45:34;;;;;;;31.38;17.88;;;4.40;94.20;;;;;;5041635;28;20070;-76
2022/12/04 11:48:11;;;;;;;33.50;18.70;;;4.50;95.50;;;;;;5034771;28;20104;-73
2022/12/04 11:50:37;;;;;;;30.77;17.13;;;4.40;94.20;;;;;;5046105;28;20052;-74
2022/12/04 11:53:23;;;;;;;33.60;17.67;;;4.40;94.50;;;;;;5040218;28;20094;-75
2022/12/04 11:55:48;;;;;;;28.83;16.10;;;4.50;94.70;;;;;;5044075;28;20032;-76
2022/12/04 11:58:25;;;;;;;34.60;18.92;;;4.50;94.90;;;;;;5040356;28;20021;-76
2022/12/04 12:01:23;;;;;;;29.73;17.50;;;4.60;95.70;;;;;;5038986;28;20037;-76
2022/12/04 12:04:27;;;;;;;27.80;17.33;;;4.50;94.80;;;;;;5022173;28;20072;-76
2022/12/04 12:06:59;;;;;;;32.75;17.73;;;4.50;93.80;;;;;;5011735;28;20033;-74
2022/12/04 12:09:45;;;;;;;28.58;15.95;;;4.50;93.70;;;;;;5047788;28;20044;-75
2022/12/04 12:12:24;;;;;;;30.02;18.30;;;4.50;94.80;;;;;;5045427;28;20045;-76
2022/12/04 12:15:04;;;;;;;28.70;17.27;;;4.50;93.90;;;;;;5036803;28;20021;-74
2022/12/04 12:17:53;;;;;;;27.83;15.75;;;4.50;94.10;;;;;;5037788;28;20031;-76
2022/12/04 12:20:36;;;;;;;30.05;16.85;;;4.40;94.00;;;;;;5042900;28;20048;-75
2022/12/04 12:23:14;;;;;;;28.63;16.45;;;4.50;93.10;;;;;;5042562;28;20029;-74
2022/12/04 12:25:52;;;;;;;32.35;18.83;;;4.50;92.20;;;;;;5046024;28;20111;-75
2022/12/04 12:28:27;;;;;;;28.25;16.05;;;4.50;93.40;;;;;;5030211;28;20032;-75
2022/12/04 12:31:09;;;;;;;31.13;17.58;;;4.50;93.60;;;;;;5034105;28;20024;-74
2022/12/04 12:33:48;;;;;;;34.42;18.40;;;4.50;93.40;;;;;;5048004;28;20051;-74
2022/12/04 12:36:14;;;;;;;27.73;16.73;;;4.50;93.00;;;;;;5046547;28;20079;-74
2022/12/04 12:38:47;;;;;;;28.95;17.35;;;4.50;92.40;;;;;;5030361;28;20032;-72
2022/12/04 12:41:18;;;;;;;30.15;18.42;;;4.40;91.70;;;;;;5029644;28;20029;-73
2022/12/04 12:43:55;;;;;;;25.48;14.27;;;4.40;91.40;;;;;;5031575;28;20021;-74
2022/12/04 12:46:35;;;;;;;27.60;17.40;;;4.50;91.60;;;;;;5024988;28;20022;-74
2022/12/04 12:49:38;;;;;;;28.92;16.13;;;4.50;90.80;;;;;;5042934;28;20037;-74
2022/12/04 12:52:24;;;;;;;28.45;15.52;;;4.40;91.90;;;;;;5034184;28;20490;-74
2022/12/04 12:54:54;;;;;;;26.77;15.77;;;4.40;92.90;;;;;;5032209;28;20057;-75
2022/12/04 12:57:37;;;;;;;29.45;16.88;;;4.40;93.90;;;;;;5039284;28;20037;-74
2022/12/04 13:00:17;;;;;;;25.58;16.27;;;4.30;93.40;;;;;;5044764;28;20067;-74
2022/12/04 13:02:59;;;;;;;32.92;17.83;;;4.40;93.90;;;;;;5025274;28;20079;-74
2022/12/04 13:05:49;;;;;;;26.85;14.25;;;4.40;93.60;;;;;;5039416;28;20022;-76
2022/12/04 13:08:53;;;;;;;30.47;17.43;;;4.30;93.90;;;;;;5049038;28;20033;-75
2022/12/04 13:11:22;;;;;;;29.15;15.80;;;4.30;94.50;;;;;;4978595;28;20043;-76